Time;durP1;ratioP1;P1;durP2;ratioP2;P2;SDS_P1;SDS_P2;PMS_P1;PMS_P2;Temp;Humidity;BMP_temperature;BMP_pressure;BME280_temperature;BME280_humidity;BME280_pressure;Samples;Min_cycle;Max_cycle;Signal;HPM_P1;HPM_P2
2022/03/29 00:00:36;;;;;;;6.82;1.58;;;20.00;99.90;;;;;;4994714;28;20018;-69
2022/03/29 00:03:05;;;;;;;4.65;1.40;;;20.00;99.90;;;;;;4996210;28;20039;-69
2022/03/29 00:05:33;;;;;;;6.22;1.73;;;19.90;99.90;;;;;;4989610;28;20025;-69
2022/03/29 00:08:00;;;;;;;7.65;2.05;;;19.90;99.90;;;;;;4997366;28;20038;-69
2022/03/29 00:10:28;;;;;;;7.35;1.90;;;19.90;99.90;;;;;;4983934;28;20018;-69
2022/03/29 00:12:55;;;;;;;8.55;3.45;;;19.90;99.90;;;;;;4991813;28;20239;-69
2022/03/29 00:15:23;;;;;;;5.50;2.97;;;19.90;99.90;;;;;;4984694;28;20026;-69
2022/03/29 00:17:51;;;;;;;3.17;1.90;;;19.90;99.90;;;;;;4989475;28;20395;-69
2022/03/29 00:20:19;;;;;;;3.85;1.65;;;19.90;99.90;;;;;;4985027;28;20038;-69
2022/03/29 00:22:47;;;;;;;6.97;1.77;;;19.90;99.90;;;;;;4987029;28;20027;-69
2022/03/29 00:25:16;;;;;;;5.40;2.28;;;20.00;99.90;;;;;;4991694;28;20490;-70
2022/03/29 00:27:43;;;;;;;9.00;3.30;;;20.00;99.90;;;;;;4992590;28;20061;-70
2022/03/29 00:30:12;;;;;;;16.00;6.72;;;20.10;99.90;;;;;;4984040;28;20023;-71
2022/03/29 00:32:40;;;;;;;6.30;1.70;;;20.10;99.90;;;;;;4985616;28;20023;-70
2022/03/29 00:35:11;;;;;;;6.38;1.58;;;20.10;99.90;;;;;;4982191;28;20026;-71
2022/03/29 00:37:42;;;;;;;5.97;1.50;;;20.10;99.90;;;;;;4993056;28;20467;-71
2022/03/29 00:40:13;;;;;;;4.75;1.83;;;20.10;99.90;;;;;;4983070;28;20109;-69
2022/03/29 00:42:41;;;;;;;5.43;1.52;;;20.20;99.90;;;;;;4991587;28;20624;-69
2022/03/29 00:45:09;;;;;;;5.10;2.15;;;20.10;99.90;;;;;;4990295;28;20042;-69
2022/03/29 00:47:36;;;;;;;4.78;2.30;;;20.10;99.90;;;;;;4991722;28;20399;-69
2022/03/29 00:50:04;;;;;;;5.65;1.25;;;20.10;99.90;;;;;;4984261;28;20031;-69
2022/03/29 00:52:33;;;;;;;3.97;1.60;;;20.10;99.90;;;;;;4979620;28;20034;-69
2022/03/29 00:55:01;;;;;;;8.95;1.73;;;20.10;99.90;;;;;;4997749;28;20030;-69
2022/03/29 00:57:34;;;;;;;6.25;1.60;;;20.10;99.90;;;;;;4987994;28;20034;-69
2022/03/29 01:00:03;;;;;;;6.68;1.27;;;20.10;99.90;;;;;;4989804;28;20057;-69
2022/03/29 01:02:31;;;;;;;6.05;1.42;;;20.20;99.90;;;;;;4974053;28;20042;-69
2022/03/29 01:04:58;;;;;;;5.63;1.45;;;20.30;99.90;;;;;;4984250;28;20049;-70
2022/03/29 01:07:27;;;;;;;2.97;0.98;;;20.20;99.90;;;;;;4990262;28;20034;-69
2022/03/29 01:09:55;;;;;;;6.25;0.90;;;20.10;99.90;;;;;;4989294;28;20030;-69
2022/03/29 01:12:24;;;;;;;2.78;0.65;;;20.10;99.90;;;;;;4984418;28;20040;-69
2022/03/29 01:14:52;;;;;;;3.47;0.93;;;20.10;99.90;;;;;;4982463;28;20029;-69
2022/03/29 01:17:39;;;;;;;4.45;1.27;;;20.10;99.90;;;;;;4988596;28;20499;-69
2022/03/29 01:20:13;;;;;;;4.18;0.98;;;20.10;99.90;;;;;;4986383;28;20463;-67
2022/03/29 01:22:43;;;;;;;5.15;0.98;;;20.20;99.90;;;;;;4990163;28;20026;-69
2022/03/29 01:25:18;;;;;;;4.07;0.70;;;20.30;99.90;;;;;;4982557;28;20352;-69
2022/03/29 01:27:45;;;;;;;;;;;20.30;99.90;;;;;;4988514;28;20042;-69
2022/03/29 01:30:13;;;;;;;5.03;1.05;;;20.30;99.90;;;;;;4988877;28;19921;-69
2022/03/29 01:32:51;;;;;;;4.47;1.30;;;20.30;99.90;;;;;;4985695;28;20400;-69
2022/03/29 01:35:24;;;;;;;6.15;1.15;;;20.40;99.90;;;;;;4981754;28;20081;-69
2022/03/29 01:37:53;;;;;;;3.75;0.80;;;20.40;99.90;;;;;;4988452;28;20026;-69
2022/03/29 01:40:24;;;;;;;2.42;0.70;;;20.40;99.90;;;;;;4984478;28;20139;-69
2022/03/29 01:42:54;;;;;;;4.80;1.13;;;20.40;99.90;;;;;;4987820;28;20023;-68
2022/03/29 01:45:26;;;;;;;4.30;0.73;;;20.40;99.90;;;;;;4988984;28;20046;-69
2022/03/29 01:47:53;;;;;;;2.25;0.70;;;20.40;99.90;;;;;;4985647;28;20390;-69
2022/03/29 01:50:21;;;;;;;3.08;1.10;;;20.50;99.90;;;;;;4986247;28;20034;-69
2022/03/29 01:52:49;;;;;;;2.92;0.90;;;20.60;99.90;;;;;;4987267;28;20034;-69
2022/03/29 01:55:19;;;;;;;2.83;0.98;;;20.60;99.90;;;;;;4989342;28;20034;-69
2022/03/29 01:57:48;;;;;;;2.70;0.88;;;20.60;99.90;;;;;;4989372;28;20098;-69
2022/03/29 02:00:31;;;;;;;2.45;1.00;;;20.80;99.90;;;;;;4977974;28;20554;-69
2022/03/29 02:03:01;;;;;;;2.42;1.15;;;21.00;99.90;;;;;;4985495;28;20018;-69
2022/03/29 02:05:30;;;;;;;2.60;0.80;;;21.10;99.90;;;;;;4988770;28;20026;-69
2022/03/29 02:07:59;;;;;;;1.40;0.88;;;20.90;99.90;;;;;;4989569;28;20038;-69
2022/03/29 02:10:26;;;;;;;3.97;1.00;;;20.90;99.90;;;;;;4986016;28;20026;-69
2022/03/29 02:12:54;;;;;;;2.08;1.10;;;20.90;99.90;;;;;;4989468;28;20140;-69
2022/03/29 02:15:21;;;;;;;5.97;2.22;;;21.00;99.90;;;;;;4984156;28;20106;-69
2022/03/29 02:17:49;;;;;;;5.45;2.25;;;21.30;99.90;;;;;;4990125;28;20026;-69
2022/03/29 02:20:17;;;;;;;4.25;2.10;;;21.50;99.90;;;;;;4985114;28;20027;-69
2022/03/29 02:22:45;;;;;;;4.22;2.28;;;21.60;99.90;;;;;;4998429;28;20073;-69
2022/03/29 02:25:13;;;;;;;3.05;1.33;;;21.60;99.90;;;;;;4988177;28;20026;-69
2022/03/29 02:27:42;;;;;;;4.40;1.45;;;21.40;99.90;;;;;;4994024;28;20042;-70
2022/03/29 02:30:12;;;;;;;7.07;1.80;;;21.30;99.90;;;;;;4986335;28;20030;-68
2022/03/29 02:32:40;;;;;;;3.78;1.63;;;21.40;99.90;;;;;;4993117;28;20026;-69
2022/03/29 02:35:08;;;;;;;3.65;1.30;;;21.30;99.90;;;;;;5003519;28;20439;-69
2022/03/29 02:37:37;;;;;;;4.30;1.40;;;21.30;99.90;;;;;;4992852;28;20376;-69
2022/03/29 02:40:05;;;;;;;1.90;0.85;;;21.40;99.90;;;;;;4992424;28;20622;-69
2022/03/29 02:42:33;;;;;;;3.83;1.27;;;21.50;99.90;;;;;;4986730;28;20146;-69
2022/03/29 02:45:01;;;;;;;2.28;1.13;;;21.60;99.90;;;;;;5004408;28;20409;-67
2022/03/29 02:47:35;;;;;;;7.88;2.00;;;21.80;99.90;;;;;;5008423;28;20069;-68
2022/03/29 02:50:06;;;;;;;1.70;1.13;;;21.80;99.90;;;;;;4985336;28;20430;-68
2022/03/29 02:52:33;;;;;;;3.25;1.27;;;21.80;99.90;;;;;;4990876;28;20026;-67
2022/03/29 02:55:00;;;;;;;3.15;1.38;;;21.90;99.90;;;;;;4992729;28;20026;-67
2022/03/29 02:57:27;;;;;;;4.03;1.40;;;21.90;99.90;;;;;;4993650;28;20031;-67
2022/03/29 02:59:55;;;;;;;4.93;1.60;;;21.80;99.90;;;;;;4985500;28;20054;-67
2022/03/29 03:02:22;;;;;;;2.90;1.40;;;21.90;99.90;;;;;;4990181;28;20029;-68
2022/03/29 03:04:49;;;;;;;4.55;1.20;;;22.10;99.90;;;;;;4988429;28;20108;-68
2022/03/29 03:07:17;;;;;;;2.92;1.15;;;22.20;99.90;;;;;;4992747;28;20101;-68
2022/03/29 03:09:44;;;;;;;5.28;1.70;;;22.00;99.90;;;;;;4989695;28;20042;-68
2022/03/29 03:12:12;;;;;;;5.10;1.20;;;22.00;99.90;;;;;;4990413;28;20062;-68
2022/03/29 03:14:39;;;;;;;4.05;1.50;;;21.90;99.90;;;;;;4989043;28;20026;-68
2022/03/29 03:17:07;;;;;;;3.63;1.50;;;22.10;99.90;;;;;;4993644;28;20068;-68
2022/03/29 03:19:34;;;;;;;2.83;0.80;;;22.20;99.90;;;;;;4989121;28;20422;-68
2022/03/29 03:22:01;;;;;;;2.97;0.90;;;22.10;99.90;;;;;;4975940;28;20038;-68
2022/03/29 03:24:29;;;;;;;2.00;0.40;;;22.20;99.90;;;;;;4977057;28;20521;-68
2022/03/29 03:26:56;;;;;;;2.30;0.88;;;22.10;99.90;;;;;;4990334;28;20528;-68
2022/03/29 03:29:23;;;;;;;3.03;0.65;;;22.10;99.90;;;;;;4987987;28;20399;-68
2022/03/29 03:31:50;;;;;;;3.58;0.75;;;22.20;99.90;;;;;;4984836;28;20038;-68
2022/03/29 03:34:18;;;;;;;4.75;1.13;;;22.20;99.90;;;;;;4989279;28;20038;-67
2022/03/29 03:36:45;;;;;;;6.20;0.90;;;22.20;99.90;;;;;;4992416;28;20088;-68
2022/03/29 03:39:12;;;;;;;4.65;0.82;;;22.30;99.90;;;;;;4986977;28;20038;-68
2022/03/29 03:41:40;;;;;;;4.97;1.15;;;22.20;99.90;;;;;;4991708;28;20030;-68
2022/03/29 03:44:07;;;;;;;6.40;1.40;;;22.10;99.90;;;;;;4987635;28;20096;-68
2022/03/29 03:46:35;;;;;;;2.75;0.80;;;22.10;99.90;;;;;;4982962;28;20023;-67
2022/03/29 03:49:02;;;;;;;5.10;0.80;;;22.10;99.90;;;;;;4989058;28;20085;-68
2022/03/29 03:51:30;;;;;;;4.25;0.90;;;22.10;99.90;;;;;;4992655;28;20108;-68
2022/03/29 03:53:57;;;;;;;4.85;0.75;;;22.00;99.90;;;;;;4986196;28;20160;-68
2022/03/29 03:56:25;;;;;;;5.90;0.90;;;22.00;99.90;;;;;;4991034;28;20026;-68
2022/03/29 03:58:52;;;;;;;2.65;1.20;;;22.00;99.90;;;;;;4990738;28;20426;-68
2022/03/29 04:01:19;;;;;;;4.35;0.80;;;22.00;99.90;;;;;;4990797;28;20113;-68
2022/03/29 04:03:46;;;;;;;6.00;0.88;;;22.00;99.90;;;;;;4991530;28;20037;-68
2022/03/29 04:06:14;;;;;;;4.47;0.85;;;22.00;99.90;;;;;;4995549;28;20455;-68
2022/03/29 04:08:41;;;;;;;5.10;0.93;;;21.90;99.90;;;;;;4991129;28;20027;-68
2022/03/29 04:11:08;;;;;;;3.78;0.90;;;22.00;99.90;;;;;;4990539;28;20554;-68
2022/03/29 04:13:36;;;;;;;4.32;0.75;;;21.90;99.90;;;;;;4988756;28;20034;-68
2022/03/29 04:16:03;;;;;;;5.50;0.90;;;21.90;99.90;;;;;;4987994;28;20034;-68
2022/03/29 04:18:31;;;;;;;4.20;0.85;;;22.00;99.90;;;;;;5006578;28;20032;-68
2022/03/29 04:21:01;;;;;;;5.03;1.10;;;22.10;99.90;;;;;;4989107;28;20080;-68
2022/03/29 04:23:29;;;;;;;6.90;1.70;;;22.00;99.90;;;;;;4988905;28;20479;-68
2022/03/29 04:25:57;;;;;;;5.13;0.90;;;22.00;99.90;;;;;;4988601;28;20038;-68
2022/03/29 04:28:24;;;;;;;5.63;1.05;;;22.00;99.90;;;;;;4988519;28;20049;-68
2022/03/29 04:30:55;;;;;;;3.92;0.85;;;22.00;99.90;;;;;;4990986;28;20068;-69
2022/03/29 04:33:26;;;;;;;3.42;0.95;;;22.00;99.90;;;;;;4985569;28;20938;-68
2022/03/29 04:35:53;;;;;;;4.85;0.90;;;22.00;99.90;;;;;;4981719;28;20035;-68
2022/03/29 04:38:20;;;;;;;5.40;0.60;;;22.00;99.90;;;;;;4989724;28;20415;-69
2022/03/29 04:40:48;;;;;;;3.75;0.70;;;21.90;99.90;;;;;;4978651;28;20022;-68
2022/03/29 04:43:15;;;;;;;6.07;0.90;;;21.90;99.90;;;;;;4982464;28;20114;-69
2022/03/29 04:45:43;;;;;;;5.32;1.00;;;21.80;99.90;;;;;;4987369;28;20053;-69
2022/03/29 04:48:11;;;;;;;10.57;1.08;;;21.80;99.90;;;;;;4989814;28;20030;-68
2022/03/29 04:50:39;;;;;;;5.43;0.95;;;21.80;99.90;;;;;;4987712;28;20022;-69
2022/03/29 04:53:07;;;;;;;4.63;0.63;;;21.90;99.90;;;;;;4992747;28;20030;-68
2022/03/29 04:55:35;;;;;;;4.43;1.15;;;21.90;99.90;;;;;;4987937;28;20034;-68
2022/03/29 04:58:02;;;;;;;7.15;0.90;;;21.90;99.90;;;;;;4986475;28;20033;-68
2022/03/29 05:00:29;;;;;;;5.05;1.00;;;22.00;99.90;;;;;;4989068;28;20029;-68
2022/03/29 05:02:57;;;;;;;5.35;0.85;;;22.00;99.90;;;;;;4987985;28;20483;-68
2022/03/29 05:05:25;;;;;;;5.68;0.60;;;22.10;99.90;;;;;;4983018;28;20375;-68
2022/03/29 05:07:52;;;;;;;5.53;0.82;;;22.00;99.90;;;;;;4990831;28;20426;-68
2022/03/29 05:10:20;;;;;;;4.05;0.70;;;22.00;99.90;;;;;;4987652;28;20085;-68
2022/03/29 05:12:51;;;;;;;5.72;0.77;;;22.10;99.90;;;;;;4988398;28;20089;-69
2022/03/29 05:15:20;;;;;;;5.07;1.02;;;22.10;99.90;;;;;;4984440;28;20054;-68
2022/03/29 05:17:47;;;;;;;6.63;0.88;;;22.00;99.90;;;;;;4984177;28;20022;-69
2022/03/29 05:20:16;;;;;;;7.38;0.70;;;22.00;99.90;;;;;;4983858;28;20050;-68
2022/03/29 05:22:51;;;;;;;5.55;0.75;;;22.10;99.90;;;;;;4992178;28;20018;-68
2022/03/29 05:25:24;;;;;;;5.57;0.73;;;22.10;99.90;;;;;;4984792;28;20037;-68
2022/03/29 05:27:57;;;;;;;8.35;1.55;;;22.10;99.90;;;;;;4985954;28;20109;-69
2022/03/29 05:30:25;;;;;;;7.60;1.27;;;22.20;99.90;;;;;;4988449;28;20422;-69
2022/03/29 05:32:57;;;;;;;6.13;1.30;;;22.10;99.90;;;;;;4990740;28;20034;-68
2022/03/29 05:35:29;;;;;;;6.55;0.63;;;22.20;99.90;;;;;;4985831;28;20104;-69
2022/03/29 05:37:58;;;;;;;7.30;1.10;;;22.20;99.90;;;;;;4987890;28;20030;-68
2022/03/29 05:40:26;;;;;;;9.48;1.20;;;22.20;99.90;;;;;;4987267;28;20042;-68
2022/03/29 05:42:54;;;;;;;5.20;1.10;;;22.20;99.90;;;;;;4989722;28;20026;-68
2022/03/29 05:45:21;;;;;;;7.18;2.33;;;22.20;99.90;;;;;;4998880;28;20050;-68
2022/03/29 05:50:34;;;;;;;12.25;3.72;;;22.30;99.90;;;;;;4987022;28;20069;-69
2022/03/29 05:53:02;;;;;;;7.90;1.45;;;22.40;99.90;;;;;;4979039;28;20045;-69
2022/03/29 05:55:30;;;;;;;5.85;1.42;;;22.40;99.90;;;;;;4978669;28;20038;-69
2022/03/29 05:57:58;;;;;;;14.63;4.68;;;22.30;99.90;;;;;;4987945;28;20098;-69
2022/03/29 06:00:27;;;;;;;71.72;26.52;;;22.30;99.90;;;;;;4986179;28;20030;-68
2022/03/29 06:02:54;;;;;;;11.52;3.38;;;22.30;99.90;;;;;;4992596;28;20022;-69
2022/03/29 06:05:22;;;;;;;13.30;4.43;;;22.30;99.90;;;;;;4988739;28;20030;-68
2022/03/29 06:07:50;;;;;;;10.10;1.67;;;22.30;99.90;;;;;;4982734;28;20502;-68
2022/03/29 06:10:17;;;;;;;8.35;1.10;;;22.30;99.90;;;;;;4983039;28;20058;-69
2022/03/29 06:12:48;;;;;;;9.68;2.30;;;22.30;99.90;;;;;;5006782;28;20046;-69
2022/03/29 06:15:15;;;;;;;7.90;3.38;;;22.10;99.90;;;;;;4983668;28;20502;-68
2022/03/29 06:17:43;;;;;;;23.20;10.32;;;22.20;99.90;;;;;;4991479;28;20046;-69
2022/03/29 06:20:11;;;;;;;18.83;10.07;;;22.20;99.90;;;;;;4987356;28;20266;-69
2022/03/29 06:22:44;;;;;;;20.65;11.27;;;22.20;99.90;;;;;;4991648;28;20046;-69
2022/03/29 06:25:13;;;;;;;10.10;1.80;;;22.30;99.90;;;;;;4991809;28;20371;-69
2022/03/29 06:27:41;;;;;;;9.18;2.40;;;22.20;99.90;;;;;;4987647;28;20062;-69
2022/03/29 06:30:09;;;;;;;8.55;1.70;;;22.10;99.90;;;;;;4990367;28;20026;-69
2022/03/29 06:32:53;;;;;;;9.85;2.42;;;22.10;99.90;;;;;;4983698;28;20065;-69
2022/03/29 06:35:22;;;;;;;12.18;3.92;;;22.10;99.90;;;;;;5005210;28;20030;-69
2022/03/29 06:37:51;;;;;;;6.30;2.60;;;22.10;99.90;;;;;;4989668;28;20598;-69
2022/03/29 06:40:21;;;;;;;6.90;1.80;;;22.00;99.90;;;;;;4985838;28;20446;-68
2022/03/29 06:42:49;;;;;;;6.07;1.40;;;22.00;99.90;;;;;;4990525;28;20029;-69
2022/03/29 06:45:16;;;;;;;5.57;1.10;;;22.00;99.90;;;;;;4988671;28;20419;-69
2022/03/29 06:47:43;;;;;;;5.03;1.40;;;22.00;99.90;;;;;;4989703;28;20030;-69
2022/03/29 06:50:12;;;;;;;5.55;1.42;;;22.00;99.90;;;;;;4991331;28;20108;-69
2022/03/29 06:52:41;;;;;;;8.40;1.55;;;22.00;99.90;;;;;;4989356;28;20474;-68
2022/03/29 06:55:10;;;;;;;5.45;1.52;;;22.00;99.90;;;;;;4993838;28;20101;-69
2022/03/29 06:57:38;;;;;;;8.55;1.77;;;21.90;99.90;;;;;;4991071;28;20026;-68
2022/03/29 07:00:12;;;;;;;6.57;1.83;;;21.90;99.90;;;;;;4985676;28;20026;-68
2022/03/29 07:02:39;;;;;;;;;;;21.90;99.90;;;;;;4994047;28;20037;-68
2022/03/29 07:05:07;;;;;;;9.20;1.38;;;21.80;99.90;;;;;;4993880;28;19952;-68
2022/03/29 07:07:34;;;;;;;6.63;1.83;;;21.80;99.90;;;;;;4990632;28;20570;-68
2022/03/29 07:12:49;;;;;;;7.78;1.63;;;21.70;99.90;;;;;;4991209;28;20068;-68
2022/03/29 07:15:17;;;;;;;9.05;1.95;;;21.70;99.90;;;;;;4989393;28;20125;-68
2022/03/29 07:17:45;;;;;;;5.07;1.15;;;21.60;99.90;;;;;;4983906;28;20089;-68
2022/03/29 07:20:16;;;;;;;9.65;1.60;;;21.60;99.90;;;;;;4983348;28;20026;-68
2022/03/29 07:22:44;;;;;;;5.88;1.65;;;21.50;99.90;;;;;;4986859;28;20383;-67
2022/03/29 07:25:12;;;;;;;7.53;1.40;;;21.60;99.90;;;;;;4988659;28;20032;-67
2022/03/29 07:27:40;;;;;;;6.30;1.65;;;21.60;99.90;;;;;;4985455;28;20038;-68
2022/03/29 07:30:10;;;;;;;5.85;1.42;;;21.50;99.90;;;;;;5006624;28;20046;-67
2022/03/29 07:32:54;;;;;;;4.47;1.17;;;21.40;99.90;;;;;;4990959;28;20030;-68
2022/03/29 07:35:24;;;;;;;3.42;1.52;;;21.40;99.90;;;;;;4991746;28;20426;-68
2022/03/29 07:37:52;;;;;;;21.38;3.05;;;21.30;99.90;;;;;;4990146;28;20052;-68
2022/03/29 07:40:22;;;;;;;10.57;2.25;;;21.30;99.90;;;;;;4989587;28;20061;-68
2022/03/29 07:42:50;;;;;;;10.30;1.80;;;21.20;99.90;;;;;;5006160;28;20026;-68
2022/03/29 07:45:18;;;;;;;6.50;2.00;;;21.10;99.90;;;;;;4990364;28;20106;-68
2022/03/29 07:47:49;;;;;;;7.22;2.60;;;21.00;99.90;;;;;;4991663;28;20030;-68
2022/03/29 07:50:16;;;;;;;8.25;2.35;;;21.00;99.90;;;;;;4987421;28;20113;-69
2022/03/29 07:52:43;;;;;;;5.20;1.20;;;21.00;99.90;;;;;;4989040;28;20022;-67
2022/03/29 07:55:12;;;;;;;7.00;1.80;;;21.00;99.90;;;;;;4991304;28;20738;-67
2022/03/29 07:57:40;;;;;;;4.82;1.45;;;21.00;99.90;;;;;;4990836;28;20029;-68
2022/03/29 08:02:56;;;;;;;6.82;2.08;;;21.00;99.90;;;;;;4995102;28;20045;-68
2022/03/29 08:05:24;;;;;;;7.47;1.92;;;21.00;99.90;;;;;;4986670;28;20030;-69
2022/03/29 08:07:52;;;;;;;8.90;2.10;;;20.90;99.90;;;;;;4988305;28;20038;-69
2022/03/29 08:10:20;;;;;;;5.53;1.88;;;20.90;99.90;;;;;;4987086;28;20022;-69
2022/03/29 08:12:47;;;;;;;15.10;4.90;;;20.90;99.90;;;;;;5005635;28;20031;-69
2022/03/29 08:15:14;;;;;;;13.27;2.95;;;20.90;99.90;;;;;;4988427;28;20077;-69
2022/03/29 08:17:42;;;;;;;6.72;2.85;;;21.00;99.90;;;;;;5004290;28;20110;-69
2022/03/29 08:20:10;;;;;;;9.30;3.05;;;21.00;99.90;;;;;;4988524;28;20642;-68
2022/03/29 08:22:41;;;;;;;7.50;3.35;;;21.00;99.90;;;;;;4981569;28;20026;-69
2022/03/29 08:25:09;;;;;;;10.88;3.15;;;21.00;99.90;;;;;;4988466;28;20375;-69
2022/03/29 08:27:36;;;;;;;9.57;3.70;;;21.00;99.90;;;;;;4989636;28;20047;-68
2022/03/29 08:30:04;;;;;;;11.18;3.95;;;21.00;99.90;;;;;;5000216;28;20054;-69
2022/03/29 08:32:35;;;;;;;10.98;3.38;;;21.00;99.90;;;;;;4990087;28;20787;-69
2022/03/29 08:35:03;;;;;;;12.93;3.08;;;20.90;99.90;;;;;;4983289;28;20038;-68
2022/03/29 08:37:31;;;;;;;11.27;3.75;;;20.90;99.90;;;;;;4988555;28;20083;-68
2022/03/29 08:39:58;;;;;;;15.13;3.50;;;21.00;99.90;;;;;;5001046;28;20533;-69
2022/03/29 08:42:26;;;;;;;17.00;3.92;;;20.80;99.90;;;;;;4989453;28;20188;-68
2022/03/29 08:44:53;;;;;;;20.23;3.58;;;20.70;99.90;;;;;;4989988;28;20133;-68
2022/03/29 08:47:21;;;;;;;21.67;3.83;;;20.60;99.90;;;;;;4988536;28;20038;-68
2022/03/29 08:49:49;;;;;;;20.65;3.60;;;20.50;99.90;;;;;;4985634;28;20030;-68
2022/03/29 08:52:18;;;;;;;17.23;3.45;;;20.50;99.90;;;;;;4989325;28;20019;-68
2022/03/29 08:54:46;;;;;;;17.98;3.85;;;20.50;99.90;;;;;;4988260;28;20026;-68
2022/03/29 08:57:14;;;;;;;15.02;4.40;;;20.50;99.90;;;;;;4988840;28;20397;-68
2022/03/29 08:59:42;;;;;;;14.27;4.45;;;20.40;99.90;;;;;;4987880;28;20030;-68
2022/03/29 09:02:11;;;;;;;22.75;4.38;;;20.40;99.90;;;;;;4991109;28;20030;-68
2022/03/29 09:04:38;;;;;;;16.65;3.03;;;20.40;99.90;;;;;;5003791;28;20058;-69
2022/03/29 09:07:06;;;;;;;16.85;4.22;;;20.40;99.90;;;;;;4989396;28;20018;-69
2022/03/29 09:09:37;;;;;;;15.40;3.95;;;20.40;99.90;;;;;;5003458;28;20038;-68
2022/03/29 09:12:19;;;;;;;13.63;3.47;;;20.40;99.90;;;;;;4988088;28;20057;-69
2022/03/29 09:15:00;;;;;;;13.50;3.42;;;20.40;99.90;;;;;;4988576;28;20553;-68
2022/03/29 09:21:17;;;;;;;21.25;4.65;;;20.40;99.90;;;;;;4984145;28;20501;-68
2022/03/29 09:24:11;;;;;;;18.38;3.45;;;20.40;99.90;;;;;;4984170;28;20046;-68
2022/03/29 09:26:44;;;;;;;22.03;4.33;;;20.40;99.90;;;;;;4989584;28;20026;-66
2022/03/29 09:29:20;;;;;;;21.02;4.78;;;20.50;99.90;;;;;;4989581;28;20035;-66
2022/03/29 09:32:03;;;;;;;21.27;4.20;;;20.40;99.90;;;;;;4979899;28;20027;-68
2022/03/29 09:34:31;;;;;;;18.52;3.50;;;20.40;99.90;;;;;;4986962;28;20425;-68
2022/03/29 09:36:59;;;;;;;13.05;3.22;;;20.40;99.90;;;;;;4989691;28;20105;-68
2022/03/29 09:39:31;;;;;;;14.93;2.88;;;20.40;99.90;;;;;;4988038;28;20029;-68
2022/03/29 09:42:00;;;;;;;19.38;3.70;;;20.50;99.90;;;;;;4986153;28;20038;-68
2022/03/29 09:44:53;;;;;;;17.67;3.85;;;20.40;99.90;;;;;;4988020;28;20483;-68
2022/03/29 09:47:22;;;;;;;11.45;3.20;;;20.40;99.90;;;;;;4989113;28;20034;-68
2022/03/29 09:49:59;;;;;;;13.73;3.60;;;20.40;99.90;;;;;;4989571;28;20105;-68
2022/03/29 09:52:29;;;;;;;16.00;2.97;;;20.40;99.90;;;;;;4986916;28;20113;-68
2022/03/29 09:55:21;;;;;;;15.05;3.50;;;20.40;99.90;;;;;;4993486;28;20030;-68
2022/03/29 09:57:54;;;;;;;17.42;3.33;;;20.40;99.90;;;;;;4986113;28;20029;-68
2022/03/29 10:00:33;;;;;;;15.10;3.05;;;20.40;99.90;;;;;;4998325;28;20026;-68
2022/03/29 10:03:03;;;;;;;17.80;3.05;;;20.40;99.90;;;;;;4981125;28;20938;-68
2022/03/29 10:05:32;;;;;;;15.18;2.60;;;20.40;99.90;;;;;;5001276;28;20052;-68
2022/03/29 10:10:52;;;;;;;18.88;2.80;;;20.40;99.90;;;;;;4985105;28;20073;-68
2022/03/29 10:13:25;;;;;;;8.63;2.10;;;20.40;99.90;;;;;;4985147;28;20029;-68
2022/03/29 10:15:53;;;;;;;14.82;2.63;;;20.40;99.90;;;;;;4983847;28;20472;-66
2022/03/29 10:18:25;;;;;;;12.43;2.38;;;20.40;99.90;;;;;;4986579;28;20049;-67
2022/03/29 10:20:56;;;;;;;10.98;1.90;;;20.40;99.90;;;;;;4988514;28;20453;-66
2022/03/29 10:23:29;;;;;;;12.68;1.85;;;20.40;99.90;;;;;;4988466;28;20085;-67
2022/03/29 10:25:58;;;;;;;9.00;1.55;;;20.40;99.90;;;;;;4987218;28;20026;-67
2022/03/29 10:28:27;;;;;;;11.40;2.25;;;20.40;99.90;;;;;;4985411;28;20121;-67
2022/03/29 10:30:55;;;;;;;8.82;1.90;;;20.40;99.90;;;;;;4988030;28;20027;-67
2022/03/29 10:33:31;;;;;;;6.53;1.27;;;20.40;99.90;;;;;;4985659;28;20053;-67
2022/03/29 10:36:12;;;;;;;9.25;1.40;;;20.40;99.90;;;;;;4984870;28;20031;-67
2022/03/29 10:38:53;;;;;;;10.50;2.40;;;20.40;99.90;;;;;;4985165;28;20023;-68
2022/03/29 10:41:29;;;;;;;11.60;1.90;;;20.40;99.90;;;;;;4987074;28;20093;-68
2022/03/29 10:44:10;;;;;;;7.13;1.67;;;20.40;99.90;;;;;;4985544;28;20076;-68
2022/03/29 10:46:46;;;;;;;11.27;1.67;;;20.40;99.90;;;;;;4998410;28;20035;-68
2022/03/29 10:49:25;;;;;;;7.88;1.83;;;20.40;99.90;;;;;;4987284;28;20041;-68
2022/03/29 10:52:04;;;;;;;10.85;2.40;;;20.40;99.90;;;;;;4990876;28;20120;-68
2022/03/29 10:54:37;;;;;;;11.02;1.67;;;20.40;99.90;;;;;;4991725;28;20022;-68
2022/03/29 10:57:18;;;;;;;10.90;2.25;;;20.40;99.90;;;;;;4991089;28;20026;-68
2022/03/29 10:59:51;;;;;;;7.57;1.73;;;20.40;99.90;;;;;;4989385;28;20030;-68
2022/03/29 11:02:20;;;;;;;10.18;1.25;;;20.40;99.90;;;;;;4989788;28;20018;-68
2022/03/29 11:05:12;;;;;;;12.23;2.30;;;20.40;99.90;;;;;;4991649;28;20046;-66
2022/03/29 11:07:53;;;;;;;22.88;3.60;;;20.40;99.90;;;;;;4991764;28;20030;-67
2022/03/29 11:10:23;;;;;;;15.65;3.55;;;20.30;99.90;;;;;;4989655;28;20035;-68
2022/03/29 11:12:56;;;;;;;17.63;3.88;;;20.40;99.90;;;;;;4987436;28;20498;-68
2022/03/29 11:15:39;;;;;;;11.00;2.65;;;20.40;99.90;;;;;;4991428;28;20037;-68
2022/03/29 11:18:30;;;;;;;9.90;2.42;;;20.40;99.90;;;;;;4987158;28;20387;-68
2022/03/29 11:21:05;;;;;;;12.57;2.65;;;20.30;99.90;;;;;;4986886;28;20026;-68
2022/03/29 11:23:40;;;;;;;8.80;1.95;;;20.20;99.90;;;;;;4986815;28;20061;-68
2022/03/29 11:26:15;;;;;;;8.35;1.38;;;20.00;99.90;;;;;;4990646;28;20026;-68
2022/03/29 11:28:57;;;;;;;7.43;1.27;;;20.00;99.90;;;;;;4987671;28;20042;-69
2022/03/29 11:31:32;;;;;;;13.93;1.85;;;20.00;99.90;;;;;;4989959;28;20034;-69
2022/03/29 11:33:59;;;;;;;10.43;1.83;;;19.90;99.90;;;;;;4987697;28;20019;-69
2022/03/29 11:36:27;;;;;;;6.90;0.90;;;19.90;99.90;;;;;;4990131;28;20039;-69
2022/03/29 11:38:54;;;;;;;8.70;1.23;;;19.80;99.90;;;;;;4989058;28;20058;-69
2022/03/29 11:41:33;;;;;;;6.75;1.45;;;19.60;99.90;;;;;;4986956;28;20026;-68
2022/03/29 11:44:06;;;;;;;8.60;0.80;;;19.60;99.90;;;;;;4986898;28;20081;-67
2022/03/29 11:46:50;;;;;;;9.27;0.95;;;19.60;99.90;;;;;;4990301;28;20038;-68
2022/03/29 11:49:18;;;;;;;9.50;1.15;;;19.50;99.90;;;;;;4993992;28;20038;-68
2022/03/29 11:52:03;;;;;;;5.07;0.98;;;19.40;99.90;;;;;;4991128;28;20025;-67
2022/03/29 11:54:30;;;;;;;8.40;1.05;;;19.40;99.90;;;;;;4991768;28;20080;-68
2022/03/29 11:56:58;;;;;;;4.80;0.52;;;19.40;99.90;;;;;;4994812;28;20394;-69
2022/03/29 11:59:33;;;;;;;5.22;1.08;;;19.40;99.90;;;;;;4990972;28;20138;-68
2022/03/29 12:02:06;;;;;;;5.43;0.80;;;19.40;99.90;;;;;;5007028;28;20037;-68
2022/03/29 12:04:34;;;;;;;7.20;1.30;;;19.50;99.90;;;;;;4993744;28;20105;-68
2022/03/29 12:07:02;;;;;;;9.35;1.77;;;19.50;99.90;;;;;;4993330;28;20030;-67
2022/03/29 12:09:30;;;;;;;4.32;1.05;;;19.50;99.90;;;;;;4993425;28;20411;-68
2022/03/29 12:12:01;;;;;;;4.35;1.02;;;19.60;99.90;;;;;;4988281;28;20035;-68
2022/03/29 12:14:29;;;;;;;5.32;1.13;;;19.60;99.90;;;;;;4994073;28;20478;-67
2022/03/29 12:17:05;;;;;;;9.13;1.42;;;19.60;99.90;;;;;;4986941;28;20023;-67
2022/03/29 12:19:34;;;;;;;6.47;1.13;;;19.60;99.90;;;;;;4974932;28;20058;-68
2022/03/29 12:22:08;;;;;;;4.78;1.00;;;19.60;99.90;;;;;;4990589;28;20031;-68
2022/03/29 12:24:40;;;;;;;4.30;0.82;;;19.60;99.90;;;;;;4981485;28;20658;-69
2022/03/29 12:27:19;;;;;;;7.50;0.90;;;19.60;99.90;;;;;;4988603;28;20395;-68
2022/03/29 12:29:52;;;;;;;6.90;0.68;;;19.50;99.90;;;;;;4992762;28;20026;-68
2022/03/29 12:32:21;;;;;;;7.88;1.02;;;19.50;99.90;;;;;;4993934;28;20026;-68
2022/03/29 12:35:01;;;;;;;7.72;1.25;;;19.50;99.90;;;;;;4993574;28;20080;-68
2022/03/29 12:37:29;;;;;;;5.18;1.30;;;19.60;99.90;;;;;;4992152;28;20084;-69
2022/03/29 12:40:05;;;;;;;8.68;1.20;;;19.50;99.90;;;;;;4980301;28;20034;-68
2022/03/29 12:42:33;;;;;;;8.50;1.70;;;19.60;99.90;;;;;;4993626;28;20183;-68
2022/03/29 12:45:03;;;;;;;7.35;0.98;;;19.50;99.90;;;;;;4992336;28;20133;-68
2022/03/29 12:47:32;;;;;;;5.00;0.93;;;19.60;99.90;;;;;;4983888;28;20498;-68
2022/03/29 12:50:01;;;;;;;6.05;0.85;;;19.60;99.90;;;;;;4990147;28;20053;-68
2022/03/29 12:52:28;;;;;;;2.83;0.82;;;19.70;99.90;;;;;;4991118;28;20089;-68
2022/03/29 12:55:02;;;;;;;2.78;0.60;;;19.60;99.90;;;;;;4975317;28;20085;-68
2022/03/29 12:57:35;;;;;;;;;;;19.60;99.90;;;;;;4982404;28;20018;-68
2022/03/29 13:00:10;;;;;;;4.80;0.50;;;19.60;99.90;;;;;;4980524;28;19910;-68
2022/03/29 13:02:43;;;;;;;2.33;0.43;;;19.60;99.90;;;;;;4987659;28;20149;-68
2022/03/29 13:05:11;;;;;;;6.68;0.90;;;19.60;99.90;;;;;;4992618;28;20030;-68
2022/03/29 13:07:56;;;;;;;3.30;0.65;;;19.60;99.90;;;;;;4987739;28;20042;-68
2022/03/29 13:10:40;;;;;;;3.78;1.02;;;19.60;99.90;;;;;;4981993;28;20105;-68
2022/03/29 13:13:08;;;;;;;3.95;0.70;;;19.60;99.90;;;;;;4982814;28;20025;-68
2022/03/29 13:15:57;;;;;;;4.60;1.15;;;19.60;99.90;;;;;;4984373;28;20122;-68